Portada
METAR-TAF:

METAR-TAF

Aeroports :

Aeroport de Múrcia-San Javier

Múrcia, Espanya

latitud: 37-47N, longitud: 000-48W, altitud: 5 m

Observació

L'informe es va fer fa 6 hores i 39 minuts, a les 05:00 UTC
Vent 4 kt del Nord-Oest
Temperatura 21°C
Humitat 88%
Pressió 1016 hPa
Visibilitat 10 km o més
sense núvols per sota de 1500 mi sense presència de cumulonimbus.

METAR: LELC 210500Z 32004KT CAVOK 21/19 Q1016 NOSIG

Hora: 13:39 (11:39 UTC)

Pronòstic

L'informe es va fer fa 6 hores i 39 minuts, a les 05:00 UTC
Pronòstic vàlid del 21 a les 06 UTC al 22 a les 06 UTC
Vent 5 kt del Nord/Nord-Oest
Visibilitat 10 km o més
sense núvols per sota de 1500 mi sense presència de cumulonimbus.
Evolucionant progressivament
l' 21 a les 08 UTC al 21 a les 10 UTC
Vent 10 kt del Est
Evolucionant progressivament
l' 21 a les 19 UTC al 21 a les 21 UTC
Vent 6 kt del Nord-Oest

TAF: LELC 210500Z 2106/2206 34005KT CAVOK TX32/2114Z TN22/2206Z BECMG 2108/2110 09010KT BECMG 2119/2121 32006KT

Observacions i pronòstics meteorològics de més de 4000 aeroports (METAR i TAF).

Les estacions disponibles són els punts grocs i vermells al mapa.

Posi el ratolí al punt desitjat per veure el nom de l'estació.

Feu clic per veure les observacions i els pronòstics meteorològics.

Per canviar el mapa: feu clic els botons verds amb una creu de color negre per apropar; al botó verd amb un guió per allunyar la imatge; o en les fletxes verdes per a mapes adjacents.


METAR-TAF: